Owensboro Daviess County Airport
KOWB : rendu visible

Aérodrome :











RETROUVEZ-NOUS SUR...

 
LOGIN :

S'inscrire | Disclaimer

   EN    FR    IT 

 









Légende :    VFR   VFR Marginal   IFR   IFR Intensif   IFR Très Intensif
Visi : 
Plafond : 
>= 8 km
>= 3000ft
5 à 8 km
1000 à 3000 ft
1500m à 5 km
500 à 1000 ft
800 à 1500m
200 à 500 ft
< 800m
< 200 ft
Symboles :   Orages  Brouillard  Fortes neiges  Fortes précipitations  Vent > 20 kt






- Altitude de l'aérodrome : 407 ft
- Code IATA : OWB


KOWB - Owensboro Daviess County

DERNIER METAR :
  • 241056Z AUTO 15007KT 6SM -RA BR FEW021 BKN025 OVC041 06/06 A2997 RMK AO2 SLP151 P0001 T00610061

METARs EXPIRÉS :
  • 240956Z AUTO 16006KT 9SM -RA OVC039 06/06 A2998 RMK AO2 SLP152 P0002 T00610061
  • 240934Z AUTO 15006KT 10SM -RA SCT029 OVC037 06/06 A2998 RMK AO2 P0001
  • 240856Z AUTO 17006KT 10SM -RA OVC025 06/06 A3000 RMK AO2 SLP159 P0002 60004 T00610061 58016
  • 240812Z AUTO 17007KT 10SM -RA BKN027 OVC035 07/06 A3001 RMK AO2 P0000
  • 240756Z AUTO 19007KT 10SM -RA OVC033 07/06 A3002 RMK AO2 SLP166 P0002 T00670061

TAF KOWB
Valide du 24 à 06h jusqu'au 25 à 06h UTC


240520Z 2406/2506 19007KT P6SM -RADZ OVC030
FM240900 17006KT 5SM -SHRA BR OVC014
FM241700 15013KT 2SM -SHRA BR OVC008
FM241800 15013G22KT 2SM SHRA BR OVC007



MET'MAP, la Météo Aéronautique d'un coup d'oeil ! - Copyright ORBIFLY Décembre 2007 - Disclaimer

ORBIFLY MET'MAP TEAM :

Programmation & Développement : Alexandra Zaïnal
Sur une idée originale de : Baudouin d'Aumeries
Assistance à la programmation : Marc-Olivier Méhu
Soutien technique & logistique : Manuel Goepfert

Contact : metmap@orbifly.com




SOURCES & CREDITS :

   NOAA       Earth
Advisory